Flight Track Log - Related Links

Times and Time Zones

All times are in EST time to prevent confusion due to time zone crossing. See the FLG4262 flight status page for this flight to view local times or setup timezone preferences in your user account.


Time Position Orientation Groundspeed Altitude Reporting Facility
EST Latitude Longitude Course Direction KTS MPH feet Rate Location/Type
Mon 05:27:28 PM 42.1992 -76.1114 282° West 238 274 7,700  Level Cleveland Center
Mon 05:28:22 PM 42.1889 -76.1919 260° West 217 250 10,500 2,895 Climbing New York Center
Mon 05:29:22 PM 42.1978 -76.2739 278° West 217 250 13,200 2,238 Climbing New York Center
Mon 05:31:35 PM 42.2522 -76.4467 293° West 246 283 17,700 2,123 Climbing Cleveland Center
Mon 05:32:37 PM 42.2856 -76.5528 293° West 254 292 20,100 1,887 Climbing Cleveland Center
Mon 05:33:39 PM 42.3150 -76.6436 294° West 263 303 21,600 1,452 Climbing Cleveland Center
Mon 05:34:41 PM 42.3447 -76.7347 294° West 266 306 23,100 1,065 Climbing Cleveland Center
Mon 05:35:43 PM 42.3742 -76.8300 293° West 272 313 23,800 581 Climbing Cleveland Center
Mon 05:36:45 PM 42.4067 -76.9339 293° West 295 339 24,300 484 Climbing Cleveland Center
Mon 05:37:47 PM 42.4419 -77.0433 294° West 313 360 24,800 532 Climbing Cleveland Center
Mon 05:38:49 PM 42.4839 -77.1806 293° West 327 376 25,400 532 Climbing Cleveland Center
Mon 05:39:51 PM 42.5206 -77.2969 293° West 334 384 25,900 290 Climbing Cleveland Center
Mon 05:40:53 PM 42.5578 -77.4156 293° West 340 391 26,000 48 Climbing Cleveland Center
Mon 05:41:55 PM 42.5931 -77.5306 293° West 344 396 26,000  Level Cleveland Center
Mon 05:42:57 PM 42.6028 -77.6594 276° West 349 402 26,000  Level Cleveland Center
Mon 05:43:59 PM 42.6083 -77.8167 273° West 369 425 26,000  Level Cleveland Center
Mon 05:45:01 PM 42.6103 -77.9369 271° West 346 398 26,000  Level Cleveland Center
Mon 05:46:03 PM 42.6133 -78.0672 272° West 346 398 26,000  Level Cleveland Center
Mon 05:47:05 PM 42.6150 -78.1986 271° West 347 399 26,000  Level Cleveland Center
Mon 05:48:07 PM 42.6181 -78.3544 272° West 345 397 26,000  Level Cleveland Center
Mon 05:49:10 PM 42.6200 -78.4856 271° West 348 400 26,000  Level Cleveland Center
Mon 05:50:12 PM 42.6228 -78.6169 272° West 351 404 26,000  Level Cleveland Center
Mon 05:51:14 PM 42.6239 -78.7461 271° West 344 396 26,000  Level Cleveland Center
Mon 05:52:16 PM 42.6261 -78.8750 271° West 343 395 26,000  Level Cleveland Center
Mon 05:53:18 PM 42.6269 -79.0019 271° West 337 388 26,000  Level Cleveland Center
Mon 05:54:20 PM 42.6286 -79.1572 271° West 340 391 26,000  Level Cleveland Center
Mon 05:55:22 PM 42.6306 -79.2847 271° West 340 391 26,000  Level Cleveland Center
Mon 05:56:24 PM 42.6311 -79.4139 270° West 343 395 26,000  Level Cleveland Center
Mon 05:57:26 PM 42.6317 -79.5411 270° West 339 390 26,000  Level Cleveland Center
Mon 05:58:28 PM 42.6336 -79.6683 271° West 339 390 26,000  Level Cleveland Center
Mon 05:59:30 PM 42.6331 -79.7978 270° West 343 395 26,000  Level Cleveland Center
Mon 06:00:32 PM 42.6342 -79.9506 271° West 339 390 26,000  Level Cleveland Center
Mon 06:01:34 PM 42.6322 -80.0769 269° West 339 390 26,000  Level Cleveland Center
Mon 06:02:36 PM 42.6325 -80.2067 270° West 341 392 26,000  Level Cleveland Center
Mon 06:03:38 PM 42.6319 -80.3356 270° West 338 389 26,000  Level Cleveland Center
Mon 06:04:40 PM 42.6328 -80.4658 271° West 340 391 26,000  Level Cleveland Center
Mon 06:05:42 PM 42.6319 -80.6158 270° West 338 389 26,000  Level Cleveland Center
Mon 06:06:44 PM 42.6322 -80.7483 270° West 345 397 26,000  Level Cleveland Center
Mon 06:07:47 PM 42.6319 -80.8789 270° West 345 397 26,000  Level Cleveland Center
Mon 06:08:49 PM 42.6308 -81.0089 269° West 343 395 26,000  Level Cleveland Center
Mon 06:09:51 PM 42.6303 -81.1381 270° West 341 392 26,000  Level Cleveland Center
Mon 06:10:53 PM 42.6292 -81.2700 269° West 345 397 26,000  Level Cleveland Center
Mon 06:11:55 PM 42.6281 -81.3978 269° West 339 390 26,000 -97 Level Cleveland Center
Mon 06:12:57 PM 42.6261 -81.5492 269° West 343 395 25,800 -726 Descending Cleveland Center
Mon 06:13:59 PM 42.6169 -81.6514 263° West 277 319 24,500 -1,355 Descending Cleveland Center
Mon 06:15:01 PM 42.6056 -81.7539 261° West 272 313 23,000 -1,452 Descending Cleveland Center
Mon 06:16:03 PM 42.5936 -81.8542 261° West 266 306 21,500 -1,452 Descending Cleveland Center
Mon 06:17:05 PM 42.5814 -81.9497 260° West 260 299 20,000 -1,452 Descending Cleveland Center
Mon 06:18:07 PM 42.5706 -82.0450 261° West 256 295 18,500 -1,403 Descending Cleveland Center
Mon 06:19:09 PM 42.5594 -82.1369 261° West 250 288 17,100 -1,469 Descending Cleveland Center
Mon 06:19:45 PM 42.5522 -82.2069 262° West 246 283 16,100 -1,714 Descending Cleveland Center
Mon 06:19:58 PM 42.5489 -82.2264 257° West 244 281 15,700 -1,556 Descending Cleveland Center
Mon 06:20:12 PM 42.5447 -82.2444 253° West 244 281 15,400 -1,433 Descending Cleveland Center
Mon 06:21:05 PM 42.5358 -82.3236 261° West 241 277 14,100 -1,452 Descending Cleveland Center
Mon 06:21:14 PM 42.5339 -82.3336 255° West 242 278 13,900 -1,574 Descending Cleveland Center
Mon 06:22:06 PM 42.5253 -82.4186 262° West 244 281 12,500 -1,452 Descending Cleveland Center
Mon 06:22:16 PM 42.5219 -82.4239 229° Southwest 243 280 12,400 -492 Descending Cleveland Center
Mon 06:23:07 PM 42.5122 -82.5131 262° West 253 291 12,000 -387 Descending Cleveland Center
Mon 06:23:18 PM 42.5100 -82.5169 232° Southwest 249 287 12,000  Level Cleveland Center
Mon 06:24:02 PM 42.4897 -82.5950 251° West 255 293 12,000  Level Cleveland Center
Mon 06:24:20 PM 42.4861 -82.6064 247° West 252 290 12,000  Level Cleveland Center
Mon 06:25:03 PM 42.4606 -82.6819 245° Southwest 253 291 12,000  Level Cleveland Center
Mon 06:25:22 PM 42.4547 -82.6914 230° Southwest 253 291 12,000  Level Cleveland Center
Mon 06:26:04 PM 42.4292 -82.7681 246° West 252 290 12,000  Level Cleveland Center
Mon 06:26:24 PM 42.4181 -82.7942 240° Southwest 253 291 12,000  Level Cleveland Center
Mon 06:27:05 PM 42.3978 -82.8544 246° West 262 302 12,000  Level Cleveland Center
Mon 06:27:26 PM 42.3872 -82.8811 242° Southwest 255 293 12,000  Level Cleveland Center
Mon 06:28:12 PM 42.3631 -82.9542 246° West 260 299 12,000  Level Cleveland Center
Mon 06:28:28 PM 42.3556 -82.9694 236° Southwest 259 298 12,000  Level Cleveland Center
Mon 06:29:13 PM 42.3314 -83.0431 246° West 254 292 12,000  Level Cleveland Center
Mon 06:29:30 PM 42.3247 -83.0542 231° Southwest 256 295 12,000 -436 Level Cleveland Center
Mon 06:30:08 PM 42.3075 -83.1106 248° West 191 220 11,600 -871 Descending Cleveland Center
Mon 06:30:32 PM 42.2972 -83.1239 224° Southwest 220 253 11,100 -677 Descending Cleveland Center
Mon 06:31:10 PM 42.2544 -83.1483 203° Southwest 231 266 10,900 -677 Descending Cleveland Center
Mon 06:31:34 PM 42.2383 -83.1539 194° South 224 258 10,400 -1,574 Descending Cleveland Center
Mon 06:32:11 PM 42.1972 -83.1828 208° Southwest 220 253 9,300 -1,548 Descending Cleveland Center
Mon 06:32:36 PM 42.1822 -83.1903 200° South 223 257 8,800 -2,164 Descending Cleveland Center
Mon 06:33:12 PM 42.1439 -83.2231 212° Southwest 201 231 7,100 -2,762 Descending Cleveland Center
Mon 06:33:39 PM 42.1211 -83.2408 210° Southwest 211 243 5,900 -2,328 Descending Cleveland Center
Mon 06:34:19 PM 42.0856 -83.2742 215° Southwest 227 261 4,500 -1,839 Descending Cleveland Center
Mon 06:34:41 PM 42.0689 -83.2864 209° Southwest 221 254 4,000 -492 Descending Cleveland Center
Mon 06:35:20 PM 42.0358 -83.3206 218° Southwest 219 252 4,000  Level Cleveland Center
Mon 06:35:43 PM 42.0178 -83.3347 210° Southwest 223 257 4,000  Level Cleveland Center
Mon 06:36:15 PM 41.9861 -83.3669 217° Southwest 233 268 4,000  Level Cleveland Center
Mon 06:36:45 PM 41.9653 -83.3850 213° Southwest 229 264 4,000  Level Cleveland Center
Mon 06:37:16 PM 41.9339 -83.4186 219° Southwest 228 262 4,000  Level Cleveland Center
Mon 06:37:47 PM 41.9139 -83.4350 211° Southwest 228 262 4,000  Level Cleveland Center
Mon 06:38:12 PM 41.8883 -83.4628 219° Southwest 228 262 4,000  Level Cleveland Center
Mon 06:38:49 PM 41.8858 -83.4944 264° West 213 245 4,000  Level Cleveland Center
Mon 06:39:13 PM 41.8953 -83.5339 288° West 186 214 4,000  Level Cleveland Center
Mon 06:39:51 PM 41.9106 -83.5472 327° Northwest 180 207 4,000  Level Cleveland Center
Mon 06:40:14 PM 41.9411 -83.5375 13° North 181 208 4,000  Level Cleveland Center
Mon 06:40:53 PM 41.9664 -83.5183 29° Northeast 180 207 4,000  Level Cleveland Center
Mon 06:41:15 PM 41.9856 -83.5075 23° Northeast 172 198 4,000  Level Cleveland Center
Mon 06:41:55 PM 42.0069 -83.4872 35° Northeast 172 198 4,000  Level Cleveland Center
Mon 06:42:17 PM 42.0256 -83.4767 23° Northeast 165 190 4,000  Level Cleveland Center
Mon 06:42:57 PM 42.0478 -83.4583 31° Northeast 168 193 4,000 -295 Level Cleveland Center
Mon 06:43:18 PM 42.0678 -83.4461 24° Northeast 167 192 3,700 -774 Descending Cleveland Center
Mon 06:43:59 PM 42.0878 -83.4286 33° Northeast 166 191 3,200 -896 Descending Cleveland Center
Mon 06:44:25 PM 42.1122 -83.4131 25° Northeast 150 173 2,700 -774 Descending Cleveland Center
Mon 06:45:01 PM 42.1247 -83.4031 31° Northeast 159 183 2,400 -764 Descending Cleveland Center
Mon 06:45:20 PM 42.1389 -83.3942 25° Northeast 118 136 2,000 -857 Descending Cleveland Center
Mon 06:46:04 PM 42.1581 -83.3778 32° Northeast 129 148 1,500 -689 Descending Cleveland Center
Mon 06:46:21 PM 42.1681 -83.3703 29° Northeast 116 133 1,300 -677 Descending Cleveland Center
Mon 06:47:06 PM 42.1872 -83.3569 27° Northeast 123 142 800 -336 Descending Cleveland Center
Mon 06:48:08 PM 42.2158 -83.3347 30° Northeast 122 140 700 -97 Descending Cleveland Center

Login

Don't have an account? Register now (free) for customized features, flight alerts, and more!